Edmundston, Canada
Current Conditions -  °F | °C
As of 8:53 PM on Friday 19 Dec 2014 (Local Time) from KFVE Reporting Station
Clear Clear  
Wind Chill:   Ceiling: Unl
Heat Index: 18°   Visibility: 10mi
Dew Point: 14°   Wind: 13mph
Humidity: 84%   Direction: 320°NW
Pressure: 30.05"   Gusts: NA
Location:  47.37°N, 68.33°W
Report Text: KFVE 200053Z AUTO 32011KT 10SM CLR M08/M10 A3005 RMK AO2 SLP190 T10781100
Loading
Personal Weather Stations






























Interactive Weather Map New forecast layout! Learn more

10-Day Weather Forecast

Advertisements
Track Severe Weather on mobile